sensor_id;sensor_type;location;lat;lon;timestamp;P1;durP1;ratioP1;P2;durP2;ratioP2
48040;SDS011;33815;48.386;11.738;2024-01-11T00:02:16;73.18;;;28.40;;
48040;SDS011;33815;48.386;11.738;2024-01-11T00:04:41;73.22;;;29.67;;
48040;SDS011;33815;48.386;11.738;2024-01-11T00:07:08;80.47;;;28.30;;
48040;SDS011;33815;48.386;11.738;2024-01-11T00:09:34;84.40;;;30.67;;
48040;SDS011;33815;48.386;11.738;2024-01-11T00:11:59;78.22;;;28.35;;
48040;SDS011;33815;48.386;11.738;2024-01-11T00:14:24;71.78;;;28.67;;
48040;SDS011;33815;48.386;11.738;2024-01-11T00:16:49;66.90;;;28.10;;
48040;SDS011;33815;48.386;11.738;2024-01-11T00:19:15;69.25;;;26.75;;
48040;SDS011;33815;48.386;11.738;2024-01-11T00:21:40;76.47;;;29.92;;
48040;SDS011;33815;48.386;11.738;2024-01-11T00:24:05;72.22;;;29.30;;
48040;SDS011;33815;48.386;11.738;2024-01-11T00:26:31;71.90;;;28.25;;
48040;SDS011;33815;48.386;11.738;2024-01-11T00:28:56;75.60;;;28.25;;
48040;SDS011;33815;48.386;11.738;2024-01-11T00:31:21;69.38;;;28.85;;
48040;SDS011;33815;48.386;11.738;2024-01-11T00:33:46;71.45;;;29.25;;
48040;SDS011;33815;48.386;11.738;2024-01-11T00:36:16;76.82;;;30.77;;
48040;SDS011;33815;48.386;11.738;2024-01-11T00:38:43;65.40;;;28.90;;
48040;SDS011;33815;48.386;11.738;2024-01-11T00:41:08;80.38;;;29.48;;
48040;SDS011;33815;48.386;11.738;2024-01-11T00:43:33;72.13;;;30.50;;
48040;SDS011;33815;48.386;11.738;2024-01-11T00:45:58;63.40;;;27.98;;
48040;SDS011;33815;48.386;11.738;2024-01-11T00:48:24;77.25;;;30.77;;
48040;SDS011;33815;48.386;11.738;2024-01-11T00:50:49;73.38;;;28.63;;
48040;SDS011;33815;48.386;11.738;2024-01-11T00:53:14;74.60;;;27.27;;
48040;SDS011;33815;48.386;11.738;2024-01-11T00:55:40;93.25;;;30.05;;
48040;SDS011;33815;48.386;11.738;2024-01-11T00:58:05;69.32;;;30.20;;
48040;SDS011;33815;48.386;11.738;2024-01-11T01:00:30;72.85;;;29.98;;
48040;SDS011;33815;48.386;11.738;2024-01-11T01:02:55;73.95;;;29.20;;
48040;SDS011;33815;48.386;11.738;2024-01-11T01:05:21;76.70;;;29.40;;
48040;SDS011;33815;48.386;11.738;2024-01-11T01:07:46;74.03;;;28.85;;
48040;SDS011;33815;48.386;11.738;2024-01-11T01:10:11;77.40;;;30.45;;
48040;SDS011;33815;48.386;11.738;2024-01-11T01:12:36;68.05;;;29.88;;
48040;SDS011;33815;48.386;11.738;2024-01-11T01:15:02;74.72;;;28.35;;
48040;SDS011;33815;48.386;11.738;2024-01-11T01:17:27;68.50;;;29.00;;
48040;SDS011;33815;48.386;11.738;2024-01-11T01:19:52;77.72;;;31.58;;
48040;SDS011;33815;48.386;11.738;2024-01-11T01:22:18;84.20;;;30.00;;
48040;SDS011;33815;48.386;11.738;2024-01-11T01:24:43;70.15;;;29.65;;
48040;SDS011;33815;48.386;11.738;2024-01-11T01:27:08;78.13;;;30.98;;
48040;SDS011;33815;48.386;11.738;2024-01-11T01:29:33;80.40;;;29.80;;
48040;SDS011;33815;48.386;11.738;2024-01-11T01:31:59;69.40;;;29.73;;
48040;SDS011;33815;48.386;11.738;2024-01-11T01:34:24;82.60;;;31.17;;
48040;SDS011;33815;48.386;11.738;2024-01-11T01:36:49;78.90;;;30.70;;
48040;SDS011;33815;48.386;11.738;2024-01-11T01:39:14;69.22;;;29.90;;
48040;SDS011;33815;48.386;11.738;2024-01-11T01:41:40;87.75;;;31.73;;
48040;SDS011;33815;48.386;11.738;2024-01-11T01:44:06;82.00;;;32.72;;
48040;SDS011;33815;48.386;11.738;2024-01-11T01:46:31;80.57;;;29.52;;
48040;SDS011;33815;48.386;11.738;2024-01-11T01:48:57;78.82;;;30.60;;
48040;SDS011;33815;48.386;11.738;2024-01-11T01:51:23;76.53;;;31.33;;
48040;SDS011;33815;48.386;11.738;2024-01-11T01:53:52;70.72;;;28.48;;
48040;SDS011;33815;48.386;11.738;2024-01-11T01:56:19;77.50;;;29.73;;
48040;SDS011;33815;48.386;11.738;2024-01-11T01:58:45;76.40;;;31.73;;
48040;SDS011;33815;48.386;11.738;2024-01-11T02:01:11;70.15;;;29.20;;
48040;SDS011;33815;48.386;11.738;2024-01-11T02:03:37;82.05;;;31.23;;
48040;SDS011;33815;48.386;11.738;2024-01-11T02:06:03;78.90;;;31.40;;
48040;SDS011;33815;48.386;11.738;2024-01-11T02:08:30;75.03;;;29.42;;
48040;SDS011;33815;48.386;11.738;2024-01-11T02:10:57;80.05;;;30.85;;
48040;SDS011;33815;48.386;11.738;2024-01-11T02:13:24;78.55;;;31.38;;
48040;SDS011;33815;48.386;11.738;2024-01-11T02:15:49;78.63;;;30.85;;
48040;SDS011;33815;48.386;11.738;2024-01-11T02:18:15;75.70;;;29.95;;
48040;SDS011;33815;48.386;11.738;2024-01-11T02:20:40;85.32;;;28.65;;
48040;SDS011;33815;48.386;11.738;2024-01-11T02:23:06;72.88;;;30.23;;
48040;SDS011;33815;48.386;11.738;2024-01-11T02:25:36;78.80;;;27.85;;
48040;SDS011;33815;48.386;11.738;2024-01-11T02:28:02;71.20;;;29.10;;
48040;SDS011;33815;48.386;11.738;2024-01-11T02:30:27;64.80;;;27.52;;
48040;SDS011;33815;48.386;11.738;2024-01-11T02:32:52;69.78;;;28.73;;
48040;SDS011;33815;48.386;11.738;2024-01-11T02:35:18;76.50;;;27.08;;
48040;SDS011;33815;48.386;11.738;2024-01-11T02:37:44;67.05;;;26.02;;
48040;SDS011;33815;48.386;11.738;2024-01-11T02:40:11;76.43;;;30.20;;
48040;SDS011;33815;48.386;11.738;2024-01-11T02:42:38;72.78;;;30.35;;
48040;SDS011;33815;48.386;11.738;2024-01-11T02:45:03;74.82;;;28.90;;
48040;SDS011;33815;48.386;11.738;2024-01-11T02:47:29;66.43;;;28.35;;
48040;SDS011;33815;48.386;11.738;2024-01-11T02:49:55;76.45;;;30.58;;
48040;SDS011;33815;48.386;11.738;2024-01-11T02:52:21;72.45;;;28.70;;
48040;SDS011;33815;48.386;11.738;2024-01-11T02:54:47;69.57;;;28.45;;
48040;SDS011;33815;48.386;11.738;2024-01-11T02:57:13;65.75;;;28.33;;
48040;SDS011;33815;48.386;11.738;2024-01-11T02:59:39;70.55;;;29.20;;
48040;SDS011;33815;48.386;11.738;2024-01-11T03:02:04;81.93;;;27.83;;
48040;SDS011;33815;48.386;11.738;2024-01-11T03:04:30;70.35;;;27.10;;
48040;SDS011;33815;48.386;11.738;2024-01-11T03:06:55;72.47;;;29.40;;
48040;SDS011;33815;48.386;11.738;2024-01-11T03:09:20;81.18;;;29.35;;
48040;SDS011;33815;48.386;11.738;2024-01-11T03:11:46;72.82;;;27.73;;
48040;SDS011;33815;48.386;11.738;2024-01-11T03:14:11;69.65;;;27.77;;
48040;SDS011;33815;48.386;11.738;2024-01-11T03:16:36;96.20;;;30.50;;
48040;SDS011;33815;48.386;11.738;2024-01-11T03:19:02;68.70;;;27.70;;
48040;SDS011;33815;48.386;11.738;2024-01-11T03:21:27;69.10;;;28.55;;
48040;SDS011;33815;48.386;11.738;2024-01-11T03:23:53;73.15;;;29.30;;
48040;SDS011;33815;48.386;11.738;2024-01-11T03:26:18;75.97;;;29.10;;
48040;SDS011;33815;48.386;11.738;2024-01-11T03:28:44;74.53;;;28.63;;
48040;SDS011;33815;48.386;11.738;2024-01-11T03:31:09;79.50;;;27.92;;
48040;SDS011;33815;48.386;11.738;2024-01-11T03:33:35;76.00;;;29.15;;
48040;SDS011;33815;48.386;11.738;2024-01-11T03:36:07;74.70;;;28.63;;
48040;SDS011;33815;48.386;11.738;2024-01-11T03:38:36;77.85;;;31.20;;
48040;SDS011;33815;48.386;11.738;2024-01-11T03:41:01;74.78;;;28.42;;
48040;SDS011;33815;48.386;11.738;2024-01-11T03:43:31;69.95;;;29.63;;
48040;SDS011;33815;48.386;11.738;2024-01-11T03:45:57;78.35;;;30.10;;
48040;SDS011;33815;48.386;11.738;2024-01-11T03:48:22;68.10;;;27.70;;
48040;SDS011;33815;48.386;11.738;2024-01-11T03:50:47;76.22;;;32.15;;
48040;SDS011;33815;48.386;11.738;2024-01-11T03:53:13;69.63;;;29.48;;
48040;SDS011;33815;48.386;11.738;2024-01-11T03:55:38;73.47;;;28.88;;
48040;SDS011;33815;48.386;11.738;2024-01-11T03:58:03;75.85;;;28.30;;
48040;SDS011;33815;48.386;11.738;2024-01-11T04:00:28;72.43;;;30.35;;
48040;SDS011;33815;48.386;11.738;2024-01-11T04:02:54;72.05;;;29.92;;
48040;SDS011;33815;48.386;11.738;2024-01-11T04:05:19;79.15;;;30.42;;
48040;SDS011;33815;48.386;11.738;2024-01-11T04:07:44;75.63;;;29.40;;
48040;SDS011;33815;48.386;11.738;2024-01-11T04:10:10;79.90;;;30.63;;
48040;SDS011;33815;48.386;11.738;2024-01-11T04:12:35;74.65;;;29.88;;
48040;SDS011;33815;48.386;11.738;2024-01-11T04:15:01;73.20;;;30.67;;
48040;SDS011;33815;48.386;11.738;2024-01-11T04:17:27;74.47;;;29.42;;
48040;SDS011;33815;48.386;11.738;2024-01-11T04:19:52;73.47;;;27.15;;
48040;SDS011;33815;48.386;11.738;2024-01-11T04:22:17;74.43;;;31.35;;
48040;SDS011;33815;48.386;11.738;2024-01-11T04:24:43;79.80;;;32.00;;
48040;SDS011;33815;48.386;11.738;2024-01-11T04:27:08;71.65;;;29.42;;
48040;SDS011;33815;48.386;11.738;2024-01-11T04:29:34;74.00;;;29.65;;
48040;SDS011;33815;48.386;11.738;2024-01-11T04:31:59;71.47;;;29.02;;
48040;SDS011;33815;48.386;11.738;2024-01-11T04:34:24;76.55;;;31.50;;
48040;SDS011;33815;48.386;11.738;2024-01-11T04:36:49;65.25;;;28.08;;
48040;SDS011;33815;48.386;11.738;2024-01-11T04:39:15;67.95;;;30.00;;
48040;SDS011;33815;48.386;11.738;2024-01-11T04:41:40;71.22;;;30.50;;
48040;SDS011;33815;48.386;11.738;2024-01-11T04:44:06;71.85;;;29.55;;
48040;SDS011;33815;48.386;11.738;2024-01-11T04:46:32;76.00;;;30.58;;
48040;SDS011;33815;48.386;11.738;2024-01-11T04:48:57;69.53;;;28.90;;
48040;SDS011;33815;48.386;11.738;2024-01-11T04:51:22;71.60;;;30.98;;
48040;SDS011;33815;48.386;11.738;2024-01-11T04:53:48;70.88;;;29.40;;
48040;SDS011;33815;48.386;11.738;2024-01-11T04:56:14;79.13;;;32.10;;
48040;SDS011;33815;48.386;11.738;2024-01-11T04:58:40;72.75;;;30.23;;
48040;SDS011;33815;48.386;11.738;2024-01-11T05:01:07;75.95;;;29.05;;
48040;SDS011;33815;48.386;11.738;2024-01-11T05:03:36;66.95;;;28.75;;
48040;SDS011;33815;48.386;11.738;2024-01-11T05:06:01;88.00;;;30.40;;
48040;SDS011;33815;48.386;11.738;2024-01-11T05:08:27;71.07;;;28.35;;
48040;SDS011;33815;48.386;11.738;2024-01-11T05:10:55;73.43;;;28.95;;
48040;SDS011;33815;48.386;11.738;2024-01-11T05:13:20;75.40;;;29.95;;
48040;SDS011;33815;48.386;11.738;2024-01-11T05:15:46;81.80;;;29.80;;
48040;SDS011;33815;48.386;11.738;2024-01-11T05:18:12;79.80;;;30.83;;
48040;SDS011;33815;48.386;11.738;2024-01-11T05:20:37;73.70;;;29.65;;
48040;SDS011;33815;48.386;11.738;2024-01-11T05:23:03;81.38;;;31.55;;
48040;SDS011;33815;48.386;11.738;2024-01-11T05:25:29;72.55;;;31.17;;
48040;SDS011;33815;48.386;11.738;2024-01-11T05:27:58;73.50;;;32.45;;
48040;SDS011;33815;48.386;11.738;2024-01-11T05:30:26;72.90;;;30.92;;
48040;SDS011;33815;48.386;11.738;2024-01-11T05:32:52;75.93;;;30.48;;
48040;SDS011;33815;48.386;11.738;2024-01-11T05:35:18;71.72;;;27.50;;
48040;SDS011;33815;48.386;11.738;2024-01-11T05:37:43;73.55;;;28.77;;
48040;SDS011;33815;48.386;11.738;2024-01-11T05:40:08;69.30;;;29.30;;
48040;SDS011;33815;48.386;11.738;2024-01-11T05:42:34;69.97;;;30.25;;
48040;SDS011;33815;48.386;11.738;2024-01-11T05:44:59;67.20;;;26.92;;
48040;SDS011;33815;48.386;11.738;2024-01-11T05:47:24;65.93;;;26.80;;
48040;SDS011;33815;48.386;11.738;2024-01-11T05:49:50;67.13;;;28.95;;
48040;SDS011;33815;48.386;11.738;2024-01-11T05:52:15;67.35;;;28.33;;
48040;SDS011;33815;48.386;11.738;2024-01-11T05:54:40;72.38;;;28.92;;
48040;SDS011;33815;48.386;11.738;2024-01-11T05:57:06;59.67;;;27.60;;
48040;SDS011;33815;48.386;11.738;2024-01-11T05:59:32;67.47;;;27.25;;
48040;SDS011;33815;48.386;11.738;2024-01-11T06:01:57;78.15;;;28.90;;
48040;SDS011;33815;48.386;11.738;2024-01-11T06:04:25;66.25;;;29.42;;
48040;SDS011;33815;48.386;11.738;2024-01-11T06:06:51;71.18;;;28.85;;
48040;SDS011;33815;48.386;11.738;2024-01-11T06:09:16;72.95;;;28.92;;
48040;SDS011;33815;48.386;11.738;2024-01-11T06:11:41;63.35;;;26.45;;
48040;SDS011;33815;48.386;11.738;2024-01-11T06:14:07;70.32;;;27.13;;
48040;SDS011;33815;48.386;11.738;2024-01-11T06:16:32;73.40;;;30.05;;
48040;SDS011;33815;48.386;11.738;2024-01-11T06:18:57;69.80;;;28.90;;
48040;SDS011;33815;48.386;11.738;2024-01-11T06:21:22;72.15;;;29.45;;
48040;SDS011;33815;48.386;11.738;2024-01-11T06:23:48;69.63;;;28.25;;
48040;SDS011;33815;48.386;11.738;2024-01-11T06:26:14;67.85;;;27.65;;
48040;SDS011;33815;48.386;11.738;2024-01-11T06:28:39;63.50;;;28.08;;
48040;SDS011;33815;48.386;11.738;2024-01-11T06:31:04;65.50;;;26.52;;
48040;SDS011;33815;48.386;11.738;2024-01-11T06:33:29;62.05;;;26.33;;
48040;SDS011;33815;48.386;11.738;2024-01-11T06:35:55;69.72;;;27.00;;
48040;SDS011;33815;48.386;11.738;2024-01-11T06:38:21;69.95;;;26.88;;
48040;SDS011;33815;48.386;11.738;2024-01-11T06:40:46;75.47;;;29.92;;
48040;SDS011;33815;48.386;11.738;2024-01-11T06:43:11;69.60;;;28.27;;
48040;SDS011;33815;48.386;11.738;2024-01-11T06:45:37;66.55;;;27.88;;
48040;SDS011;33815;48.386;11.738;2024-01-11T06:48:02;71.55;;;28.58;;
48040;SDS011;33815;48.386;11.738;2024-01-11T06:50:28;76.65;;;28.67;;
48040;SDS011;33815;48.386;11.738;2024-01-11T06:52:53;70.47;;;27.83;;
48040;SDS011;33815;48.386;11.738;2024-01-11T06:55:19;63.22;;;28.75;;
48040;SDS011;33815;48.386;11.738;2024-01-11T06:57:46;71.97;;;30.25;;
48040;SDS011;33815;48.386;11.738;2024-01-11T07:00:13;80.78;;;29.63;;
48040;SDS011;33815;48.386;11.738;2024-01-11T07:02:38;77.25;;;28.85;;
48040;SDS011;33815;48.386;11.738;2024-01-11T07:05:05;72.57;;;28.92;;
48040;SDS011;33815;48.386;11.738;2024-01-11T07:07:30;63.97;;;28.02;;
48040;SDS011;33815;48.386;11.738;2024-01-11T07:09:56;74.88;;;28.25;;
48040;SDS011;33815;48.386;11.738;2024-01-11T07:12:21;71.82;;;26.42;;
48040;SDS011;33815;48.386;11.738;2024-01-11T07:14:46;56.78;;;24.88;;
48040;SDS011;33815;48.386;11.738;2024-01-11T07:17:11;67.05;;;25.33;;
48040;SDS011;33815;48.386;11.738;2024-01-11T07:19:37;64.50;;;25.90;;
48040;SDS011;33815;48.386;11.738;2024-01-11T07:22:02;70.78;;;27.50;;
48040;SDS011;33815;48.386;11.738;2024-01-11T07:24:27;79.30;;;27.25;;
48040;SDS011;33815;48.386;11.738;2024-01-11T07:27:00;62.70;;;25.15;;
48040;SDS011;33815;48.386;11.738;2024-01-11T07:29:25;56.95;;;24.13;;
48040;SDS011;33815;48.386;11.738;2024-01-11T07:31:51;70.55;;;27.08;;
48040;SDS011;33815;48.386;11.738;2024-01-11T07:34:16;61.78;;;26.58;;
48040;SDS011;33815;48.386;11.738;2024-01-11T07:36:42;64.15;;;28.42;;
48040;SDS011;33815;48.386;11.738;2024-01-11T07:39:07;67.63;;;24.85;;
48040;SDS011;33815;48.386;11.738;2024-01-11T07:41:33;58.78;;;25.17;;
48040;SDS011;33815;48.386;11.738;2024-01-11T07:43:58;69.40;;;26.08;;
48040;SDS011;33815;48.386;11.738;2024-01-11T07:46:24;72.28;;;28.02;;
48040;SDS011;33815;48.386;11.738;2024-01-11T07:48:50;70.40;;;26.65;;
48040;SDS011;33815;48.386;11.738;2024-01-11T07:51:15;66.57;;;27.15;;
48040;SDS011;33815;48.386;11.738;2024-01-11T07:53:40;64.13;;;27.27;;
48040;SDS011;33815;48.386;11.738;2024-01-11T07:56:06;59.47;;;27.02;;
48040;SDS011;33815;48.386;11.738;2024-01-11T07:58:32;66.88;;;27.95;;
48040;SDS011;33815;48.386;11.738;2024-01-11T08:00:57;66.10;;;26.23;;
48040;SDS011;33815;48.386;11.738;2024-01-11T08:03:22;68.68;;;27.30;;
48040;SDS011;33815;48.386;11.738;2024-01-11T08:05:47;70.68;;;30.17;;
48040;SDS011;33815;48.386;11.738;2024-01-11T08:08:15;59.45;;;26.98;;
48040;SDS011;33815;48.386;11.738;2024-01-11T08:10:40;67.50;;;27.13;;
48040;SDS011;33815;48.386;11.738;2024-01-11T08:13:05;61.53;;;26.02;;
48040;SDS011;33815;48.386;11.738;2024-01-11T08:15:31;74.00;;;28.58;;
48040;SDS011;33815;48.386;11.738;2024-01-11T08:17:56;70.13;;;27.58;;
48040;SDS011;33815;48.386;11.738;2024-01-11T08:20:21;73.63;;;29.83;;
48040;SDS011;33815;48.386;11.738;2024-01-11T08:22:47;76.90;;;29.98;;
48040;SDS011;33815;48.386;11.738;2024-01-11T08:25:12;75.88;;;27.73;;
48040;SDS011;33815;48.386;11.738;2024-01-11T08:27:38;70.97;;;28.10;;
48040;SDS011;33815;48.386;11.738;2024-01-11T08:30:04;74.22;;;29.98;;
48040;SDS011;33815;48.386;11.738;2024-01-11T08:32:30;72.85;;;30.63;;
48040;SDS011;33815;48.386;11.738;2024-01-11T08:34:56;69.50;;;30.35;;
48040;SDS011;33815;48.386;11.738;2024-01-11T08:37:21;79.00;;;33.30;;
48040;SDS011;33815;48.386;11.738;2024-01-11T08:39:48;73.97;;;31.02;;
48040;SDS011;33815;48.386;11.738;2024-01-11T08:42:13;80.05;;;33.83;;
48040;SDS011;33815;48.386;11.738;2024-01-11T08:44:43;80.68;;;33.97;;
48040;SDS011;33815;48.386;11.738;2024-01-11T08:47:08;81.30;;;36.00;;
48040;SDS011;33815;48.386;11.738;2024-01-11T08:49:40;91.18;;;39.05;;
48040;SDS011;33815;48.386;11.738;2024-01-11T08:52:07;92.60;;;38.38;;
48040;SDS011;33815;48.386;11.738;2024-01-11T08:54:33;87.43;;;38.40;;
48040;SDS011;33815;48.386;11.738;2024-01-11T08:56:58;89.75;;;39.88;;
48040;SDS011;33815;48.386;11.738;2024-01-11T08:59:24;84.80;;;37.50;;
48040;SDS011;33815;48.386;11.738;2024-01-11T09:01:50;92.63;;;39.72;;
48040;SDS011;33815;48.386;11.738;2024-01-11T09:04:16;100.30;;;40.90;;
48040;SDS011;33815;48.386;11.738;2024-01-11T09:06:42;98.63;;;38.00;;
48040;SDS011;33815;48.386;11.738;2024-01-11T09:09:08;89.55;;;38.35;;
48040;SDS011;33815;48.386;11.738;2024-01-11T09:11:35;87.05;;;37.92;;
48040;SDS011;33815;48.386;11.738;2024-01-11T09:14:00;89.30;;;38.50;;
48040;SDS011;33815;48.386;11.738;2024-01-11T09:16:27;85.95;;;36.10;;
48040;SDS011;33815;48.386;11.738;2024-01-11T09:18:53;79.50;;;35.33;;
48040;SDS011;33815;48.386;11.738;2024-01-11T09:21:18;78.78;;;33.25;;
48040;SDS011;33815;48.386;11.738;2024-01-11T09:23:43;72.05;;;32.45;;
48040;SDS011;33815;48.386;11.738;2024-01-11T09:26:09;79.20;;;33.13;;
48040;SDS011;33815;48.386;11.738;2024-01-11T09:28:34;75.72;;;31.45;;
48040;SDS011;33815;48.386;11.738;2024-01-11T09:30:59;79.93;;;32.75;;
48040;SDS011;33815;48.386;11.738;2024-01-11T09:33:26;80.78;;;34.92;;
48040;SDS011;33815;48.386;11.738;2024-01-11T09:35:52;73.63;;;31.83;;
48040;SDS011;33815;48.386;11.738;2024-01-11T09:38:17;87.65;;;34.58;;
48040;SDS011;33815;48.386;11.738;2024-01-11T09:40:43;76.57;;;32.28;;
48040;SDS011;33815;48.386;11.738;2024-01-11T09:43:08;82.18;;;33.92;;
48040;SDS011;33815;48.386;11.738;2024-01-11T09:45:34;76.50;;;33.33;;
48040;SDS011;33815;48.386;11.738;2024-01-11T09:48:03;72.25;;;31.58;;
48040;SDS011;33815;48.386;11.738;2024-01-11T09:50:31;81.28;;;34.42;;
48040;SDS011;33815;48.386;11.738;2024-01-11T09:52:57;69.68;;;31.95;;
48040;SDS011;33815;48.386;11.738;2024-01-11T09:55:22;77.43;;;32.90;;
48040;SDS011;33815;48.386;11.738;2024-01-11T09:57:48;82.28;;;34.78;;
48040;SDS011;33815;48.386;11.738;2024-01-11T10:00:18;77.95;;;36.88;;
48040;SDS011;33815;48.386;11.738;2024-01-11T10:02:47;76.70;;;32.72;;
48040;SDS011;33815;48.386;11.738;2024-01-11T10:05:12;78.18;;;33.90;;
48040;SDS011;33815;48.386;11.738;2024-01-11T10:07:39;78.97;;;33.78;;
48040;SDS011;33815;48.386;11.738;2024-01-11T10:10:04;87.32;;;34.30;;
48040;SDS011;33815;48.386;11.738;2024-01-11T10:12:32;72.68;;;32.15;;
48040;SDS011;33815;48.386;11.738;2024-01-11T10:15:05;86.50;;;36.97;;
48040;SDS011;33815;48.386;11.738;2024-01-11T10:17:40;79.50;;;36.47;;
48040;SDS011;33815;48.386;11.738;2024-01-11T10:20:08;84.38;;;37.00;;
48040;SDS011;33815;48.386;11.738;2024-01-11T10:22:35;84.05;;;34.80;;
48040;SDS011;33815;48.386;11.738;2024-01-11T10:25:08;73.10;;;36.92;;
48040;SDS011;33815;48.386;11.738;2024-01-11T10:27:36;86.70;;;37.97;;
48040;SDS011;33815;48.386;11.738;2024-01-11T10:30:01;90.15;;;41.10;;
48040;SDS011;33815;48.386;11.738;2024-01-11T10:32:28;90.85;;;38.58;;
48040;SDS011;33815;48.386;11.738;2024-01-11T10:34:53;89.30;;;36.80;;
48040;SDS011;33815;48.386;11.738;2024-01-11T10:37:19;81.47;;;36.55;;
48040;SDS011;33815;48.386;11.738;2024-01-11T10:39:46;85.50;;;38.40;;
48040;SDS011;33815;48.386;11.738;2024-01-11T10:42:14;77.22;;;36.17;;
48040;SDS011;33815;48.386;11.738;2024-01-11T10:44:45;83.68;;;37.78;;
48040;SDS011;33815;48.386;11.738;2024-01-11T10:47:13;73.82;;;36.92;;
48040;SDS011;33815;48.386;11.738;2024-01-11T10:49:40;77.85;;;36.85;;
48040;SDS011;33815;48.386;11.738;2024-01-11T10:52:09;81.40;;;36.85;;
48040;SDS011;33815;48.386;11.738;2024-01-11T10:54:38;90.00;;;38.30;;
48040;SDS011;33815;48.386;11.738;2024-01-11T10:57:06;83.22;;;38.13;;
48040;SDS011;33815;48.386;11.738;2024-01-11T10:59:33;82.47;;;37.92;;
48040;SDS011;33815;48.386;11.738;2024-01-11T11:02:04;76.53;;;37.00;;
48040;SDS011;33815;48.386;11.738;2024-01-11T11:04:37;82.70;;;38.03;;
48040;SDS011;33815;48.386;11.738;2024-01-11T11:07:03;79.85;;;36.65;;
48040;SDS011;33815;48.386;11.738;2024-01-11T11:09:32;84.60;;;37.40;;
48040;SDS011;33815;48.386;11.738;2024-01-11T11:12:00;80.65;;;37.17;;
48040;SDS011;33815;48.386;11.738;2024-01-11T11:14:28;78.25;;;37.53;;
48040;SDS011;33815;48.386;11.738;2024-01-11T11:16:53;82.57;;;36.55;;
48040;SDS011;33815;48.386;11.738;2024-01-11T11:19:19;83.95;;;39.08;;
48040;SDS011;33815;48.386;11.738;2024-01-11T11:21:46;78.88;;;37.03;;
48040;SDS011;33815;48.386;11.738;2024-01-11T11:24:12;93.07;;;37.88;;
48040;SDS011;33815;48.386;11.738;2024-01-11T11:26:38;81.65;;;36.33;;
48040;SDS011;33815;48.386;11.738;2024-01-11T11:29:04;81.75;;;36.55;;
48040;SDS011;33815;48.386;11.738;2024-01-11T11:31:44;80.22;;;37.40;;
48040;SDS011;33815;48.386;11.738;2024-01-11T11:34:19;92.20;;;39.38;;
48040;SDS011;33815;48.386;11.738;2024-01-11T11:36:48;92.07;;;37.88;;
48040;SDS011;33815;48.386;11.738;2024-01-11T11:39:19;82.07;;;38.25;;
48040;SDS011;33815;48.386;11.738;2024-01-11T11:41:45;82.80;;;39.85;;
48040;SDS011;33815;48.386;11.738;2024-01-11T11:44:11;83.80;;;38.35;;
48040;SDS011;33815;48.386;11.738;2024-01-11T11:46:38;85.38;;;37.50;;
48040;SDS011;33815;48.386;11.738;2024-01-11T11:49:04;86.35;;;39.30;;
48040;SDS011;33815;48.386;11.738;2024-01-11T11:51:29;89.03;;;39.25;;
48040;SDS011;33815;48.386;11.738;2024-01-11T11:53:55;78.97;;;36.80;;
48040;SDS011;33815;48.386;11.738;2024-01-11T11:56:21;78.32;;;36.03;;
48040;SDS011;33815;48.386;11.738;2024-01-11T11:58:47;83.25;;;38.17;;
48040;SDS011;33815;48.386;11.738;2024-01-11T12:01:15;80.78;;;37.00;;
48040;SDS011;33815;48.386;11.738;2024-01-11T12:03:42;79.68;;;37.50;;
48040;SDS011;33815;48.386;11.738;2024-01-11T12:06:13;84.55;;;36.08;;
48040;SDS011;33815;48.386;11.738;2024-01-11T12:08:41;79.75;;;38.20;;
48040;SDS011;33815;48.386;11.738;2024-01-11T12:11:08;90.93;;;39.15;;
48040;SDS011;33815;48.386;11.738;2024-01-11T12:13:33;84.85;;;37.70;;
48040;SDS011;33815;48.386;11.738;2024-01-11T12:16:00;85.93;;;39.05;;
48040;SDS011;33815;48.386;11.738;2024-01-11T12:18:25;80.10;;;39.47;;
48040;SDS011;33815;48.386;11.738;2024-01-11T12:20:50;89.60;;;38.80;;
48040;SDS011;33815;48.386;11.738;2024-01-11T12:23:17;82.32;;;36.03;;
48040;SDS011;33815;48.386;11.738;2024-01-11T12:25:43;84.43;;;37.90;;
48040;SDS011;33815;48.386;11.738;2024-01-11T12:28:08;76.35;;;37.83;;
48040;SDS011;33815;48.386;11.738;2024-01-11T12:30:34;85.97;;;40.35;;
48040;SDS011;33815;48.386;11.738;2024-01-11T12:33:00;80.25;;;37.05;;
48040;SDS011;33815;48.386;11.738;2024-01-11T12:35:26;88.35;;;38.97;;
48040;SDS011;33815;48.386;11.738;2024-01-11T12:37:58;86.65;;;38.35;;
48040;SDS011;33815;48.386;11.738;2024-01-11T12:40:24;77.07;;;38.97;;
48040;SDS011;33815;48.386;11.738;2024-01-11T12:42:49;85.40;;;40.03;;
48040;SDS011;33815;48.386;11.738;2024-01-11T12:45:16;78.22;;;35.97;;
48040;SDS011;33815;48.386;11.738;2024-01-11T12:47:42;73.68;;;37.35;;
48040;SDS011;33815;48.386;11.738;2024-01-11T12:50:08;73.30;;;36.90;;
48040;SDS011;33815;48.386;11.738;2024-01-11T12:52:34;83.80;;;38.88;;
48040;SDS011;33815;48.386;11.738;2024-01-11T12:54:59;80.47;;;37.88;;
48040;SDS011;33815;48.386;11.738;2024-01-11T12:57:24;68.07;;;34.70;;
48040;SDS011;33815;48.386;11.738;2024-01-11T12:59:51;77.38;;;35.45;;
48040;SDS011;33815;48.386;11.738;2024-01-11T13:02:17;78.72;;;35.67;;
48040;SDS011;33815;48.386;11.738;2024-01-11T13:04:43;73.70;;;35.47;;
48040;SDS011;33815;48.386;11.738;2024-01-11T13:07:11;71.88;;;36.30;;
48040;SDS011;33815;48.386;11.738;2024-01-11T13:09:38;76.72;;;36.47;;
48040;SDS011;33815;48.386;11.738;2024-01-11T13:12:04;76.60;;;34.38;;
48040;SDS011;33815;48.386;11.738;2024-01-11T13:14:30;72.15;;;35.45;;
48040;SDS011;33815;48.386;11.738;2024-01-11T13:16:55;81.72;;;38.03;;
48040;SDS011;33815;48.386;11.738;2024-01-11T13:19:20;80.50;;;38.88;;
48040;SDS011;33815;48.386;11.738;2024-01-11T13:21:45;84.00;;;39.70;;
48040;SDS011;33815;48.386;11.738;2024-01-11T13:24:11;81.63;;;38.13;;
48040;SDS011;33815;48.386;11.738;2024-01-11T13:26:38;85.25;;;39.20;;
48040;SDS011;33815;48.386;11.738;2024-01-11T13:29:03;93.70;;;38.40;;
48040;SDS011;33815;48.386;11.738;2024-01-11T13:31:29;83.28;;;41.42;;
48040;SDS011;33815;48.386;11.738;2024-01-11T13:33:54;87.07;;;39.85;;
48040;SDS011;33815;48.386;11.738;2024-01-11T13:36:21;95.55;;;42.65;;
48040;SDS011;33815;48.386;11.738;2024-01-11T13:38:47;103.93;;;45.67;;
48040;SDS011;33815;48.386;11.738;2024-01-11T13:41:14;107.65;;;46.58;;
48040;SDS011;33815;48.386;11.738;2024-01-11T13:43:39;96.63;;;43.33;;
48040;SDS011;33815;48.386;11.738;2024-01-11T13:46:04;91.20;;;43.00;;
48040;SDS011;33815;48.386;11.738;2024-01-11T13:48:33;111.13;;;44.70;;
48040;SDS011;33815;48.386;11.738;2024-01-11T13:50:58;94.80;;;44.88;;
48040;SDS011;33815;48.386;11.738;2024-01-11T13:53:24;92.40;;;44.20;;
48040;SDS011;33815;48.386;11.738;2024-01-11T13:55:50;98.10;;;45.15;;
48040;SDS011;33815;48.386;11.738;2024-01-11T13:58:16;94.93;;;44.90;;
48040;SDS011;33815;48.386;11.738;2024-01-11T14:00:42;98.80;;;43.85;;
48040;SDS011;33815;48.386;11.738;2024-01-11T14:03:08;107.07;;;45.30;;